sensor_id;sensor_type;location;lat;lon;timestamp;temperature;humidity
32470;DHT22;18925;48.356;10.864;2022-08-25T00:00:22;18.50;99.90
32470;DHT22;18925;48.356;10.864;2022-08-25T00:00:53;18.50;99.90
32470;DHT22;18925;48.356;10.864;2022-08-25T00:01:28;18.50;99.90
32470;DHT22;18925;48.356;10.864;2022-08-25T00:02:02;18.50;99.90
32470;DHT22;18925;48.356;10.864;2022-08-25T00:02:33;18.50;99.90
32470;DHT22;18925;48.356;10.864;2022-08-25T00:03:04;18.50;99.90
32470;DHT22;18925;48.356;10.864;2022-08-25T00:03:35;18.50;99.90
32470;DHT22;18925;48.356;10.864;2022-08-25T00:04:08;18.50;99.90
32470;DHT22;18925;48.356;10.864;2022-08-25T00:04:40;18.50;99.90
32470;DHT22;18925;48.356;10.864;2022-08-25T00:05:11;18.40;99.90
32470;DHT22;18925;48.356;10.864;2022-08-25T00:05:41;18.50;99.90
32470;DHT22;18925;48.356;10.864;2022-08-25T00:06:13;18.50;99.90
32470;DHT22;18925;48.356;10.864;2022-08-25T00:06:45;18.40;99.90
32470;DHT22;18925;48.356;10.864;2022-08-25T00:07:16;18.50;99.90
32470;DHT22;18925;48.356;10.864;2022-08-25T00:07:47;18.50;99.90
32470;DHT22;18925;48.356;10.864;2022-08-25T00:08:18;18.50;99.90
32470;DHT22;18925;48.356;10.864;2022-08-25T00:08:49;18.50;99.90
32470;DHT22;18925;48.356;10.864;2022-08-25T00:09:22;18.50;99.90
32470;DHT22;18925;48.356;10.864;2022-08-25T00:09:53;18.50;99.90
32470;DHT22;18925;48.356;10.864;2022-08-25T00:10:24;18.40;99.90
32470;DHT22;18925;48.356;10.864;2022-08-25T00:10:55;18.40;99.90
32470;DHT22;18925;48.356;10.864;2022-08-25T00:11:28;18.50;99.90
32470;DHT22;18925;48.356;10.864;2022-08-25T00:12:00;18.40;99.90
32470;DHT22;18925;48.356;10.864;2022-08-25T00:12:30;18.50;99.90
32470;DHT22;18925;48.356;10.864;2022-08-25T00:13:02;18.50;99.90
32470;DHT22;18925;48.356;10.864;2022-08-25T00:13:33;18.50;99.90
32470;DHT22;18925;48.356;10.864;2022-08-25T00:14:11;18.50;99.90
32470;DHT22;18925;48.356;10.864;2022-08-25T00:14:42;18.50;99.90
32470;DHT22;18925;48.356;10.864;2022-08-25T00:15:13;18.50;99.90
32470;DHT22;18925;48.356;10.864;2022-08-25T00:15:43;18.50;99.90
32470;DHT22;18925;48.356;10.864;2022-08-25T00:16:17;18.50;99.90
32470;DHT22;18925;48.356;10.864;2022-08-25T00:16:48;18.50;99.90
32470;DHT22;18925;48.356;10.864;2022-08-25T00:17:19;18.50;99.90
32470;DHT22;18925;48.356;10.864;2022-08-25T00:17:51;18.50;99.90
32470;DHT22;18925;48.356;10.864;2022-08-25T00:18:21;18.50;99.90
32470;DHT22;18925;48.356;10.864;2022-08-25T00:18:55;18.50;99.90
32470;DHT22;18925;48.356;10.864;2022-08-25T00:19:30;18.50;99.90
32470;DHT22;18925;48.356;10.864;2022-08-25T00:20:01;18.50;99.90
32470;DHT22;18925;48.356;10.864;2022-08-25T00:20:32;18.50;99.90
32470;DHT22;18925;48.356;10.864;2022-08-25T00:21:04;18.50;99.90
32470;DHT22;18925;48.356;10.864;2022-08-25T00:21:35;18.40;99.90
32470;DHT22;18925;48.356;10.864;2022-08-25T00:22:06;18.40;99.90
32470;DHT22;18925;48.356;10.864;2022-08-25T00:22:37;18.40;99.90
32470;DHT22;18925;48.356;10.864;2022-08-25T00:23:07;18.40;99.90
32470;DHT22;18925;48.356;10.864;2022-08-25T00:23:38;18.40;99.90
32470;DHT22;18925;48.356;10.864;2022-08-25T00:24:11;18.40;99.90
32470;DHT22;18925;48.356;10.864;2022-08-25T00:24:41;18.40;99.90
32470;DHT22;18925;48.356;10.864;2022-08-25T00:25:12;18.40;99.90
32470;DHT22;18925;48.356;10.864;2022-08-25T00:25:43;18.30;99.90
32470;DHT22;18925;48.356;10.864;2022-08-25T00:26:14;18.30;99.90
32470;DHT22;18925;48.356;10.864;2022-08-25T00:26:47;18.30;99.90
32470;DHT22;18925;48.356;10.864;2022-08-25T00:27:18;18.20;99.90
32470;DHT22;18925;48.356;10.864;2022-08-25T00:27:49;18.20;99.90
32470;DHT22;18925;48.356;10.864;2022-08-25T00:28:20;18.20;99.90
32470;DHT22;18925;48.356;10.864;2022-08-25T00:28:51;18.20;99.90
32470;DHT22;18925;48.356;10.864;2022-08-25T00:29:24;18.20;99.90
32470;DHT22;18925;48.356;10.864;2022-08-25T00:29:55;18.20;99.90
32470;DHT22;18925;48.356;10.864;2022-08-25T00:30:26;18.10;99.90
32470;DHT22;18925;48.356;10.864;2022-08-25T00:30:57;18.10;99.90
32470;DHT22;18925;48.356;10.864;2022-08-25T00:31:28;18.10;99.90
32470;DHT22;18925;48.356;10.864;2022-08-25T00:32:00;18.10;99.90
32470;DHT22;18925;48.356;10.864;2022-08-25T00:32:30;18.10;99.90
32470;DHT22;18925;48.356;10.864;2022-08-25T00:33:02;18.00;99.90
32470;DHT22;18925;48.356;10.864;2022-08-25T00:33:33;18.00;99.90
32470;DHT22;18925;48.356;10.864;2022-08-25T00:34:07;18.00;99.90
32470;DHT22;18925;48.356;10.864;2022-08-25T00:34:38;17.90;99.90
32470;DHT22;18925;48.356;10.864;2022-08-25T00:35:09;17.90;99.90
32470;DHT22;18925;48.356;10.864;2022-08-25T00:35:41;17.90;99.90
32470;DHT22;18925;48.356;10.864;2022-08-25T00:36:13;18.00;99.90
32470;DHT22;18925;48.356;10.864;2022-08-25T00:36:44;18.00;99.90
32470;DHT22;18925;48.356;10.864;2022-08-25T00:37:15;17.90;99.90
32470;DHT22;18925;48.356;10.864;2022-08-25T00:37:45;17.90;99.90
32470;DHT22;18925;48.356;10.864;2022-08-25T00:38:16;17.90;99.90
32470;DHT22;18925;48.356;10.864;2022-08-25T00:38:48;17.90;99.90
32470;DHT22;18925;48.356;10.864;2022-08-25T00:39:20;17.90;99.90
32470;DHT22;18925;48.356;10.864;2022-08-25T00:39:51;17.90;99.90
32470;DHT22;18925;48.356;10.864;2022-08-25T00:40:24;17.90;99.90
32470;DHT22;18925;48.356;10.864;2022-08-25T00:40:54;17.90;99.90
32470;DHT22;18925;48.356;10.864;2022-08-25T00:41:47;18.00;99.90
32470;DHT22;18925;48.356;10.864;2022-08-25T00:42:18;18.00;99.90
32470;DHT22;18925;48.356;10.864;2022-08-25T00:42:50;18.00;99.90
32470;DHT22;18925;48.356;10.864;2022-08-25T00:43:21;17.90;99.90
32470;DHT22;18925;48.356;10.864;2022-08-25T00:43:56;18.00;99.90
32470;DHT22;18925;48.356;10.864;2022-08-25T00:44:29;18.00;99.90
32470;DHT22;18925;48.356;10.864;2022-08-25T00:45:00;18.00;99.90
32470;DHT22;18925;48.356;10.864;2022-08-25T00:45:31;17.90;99.90
32470;DHT22;18925;48.356;10.864;2022-08-25T00:46:03;18.00;99.90
32470;DHT22;18925;48.356;10.864;2022-08-25T00:46:42;18.00;99.90
32470;DHT22;18925;48.356;10.864;2022-08-25T00:47:13;18.00;99.90
32470;DHT22;18925;48.356;10.864;2022-08-25T00:47:44;18.00;99.90
32470;DHT22;18925;48.356;10.864;2022-08-25T00:48:15;18.00;99.90
32470;DHT22;18925;48.356;10.864;2022-08-25T00:48:49;18.00;99.90
32470;DHT22;18925;48.356;10.864;2022-08-25T00:50:00;18.00;99.90
32470;DHT22;18925;48.356;10.864;2022-08-25T00:50:33;17.90;99.90
32470;DHT22;18925;48.356;10.864;2022-08-25T00:51:07;17.90;99.90
32470;DHT22;18925;48.356;10.864;2022-08-25T00:51:45;17.90;99.90
32470;DHT22;18925;48.356;10.864;2022-08-25T00:52:24;17.90;99.90
32470;DHT22;18925;48.356;10.864;2022-08-25T00:52:59;17.90;99.90
32470;DHT22;18925;48.356;10.864;2022-08-25T00:53:31;17.90;99.90
32470;DHT22;18925;48.356;10.864;2022-08-25T00:54:03;17.80;99.90
32470;DHT22;18925;48.356;10.864;2022-08-25T00:54:38;17.90;99.90
32470;DHT22;18925;48.356;10.864;2022-08-25T00:55:12;17.80;99.90
32470;DHT22;18925;48.356;10.864;2022-08-25T00:55:43;17.80;99.90
32470;DHT22;18925;48.356;10.864;2022-08-25T00:56:14;17.80;99.90
32470;DHT22;18925;48.356;10.864;2022-08-25T00:56:45;17.80;99.90
32470;DHT22;18925;48.356;10.864;2022-08-25T00:57:20;17.90;99.90
32470;DHT22;18925;48.356;10.864;2022-08-25T00:57:59;17.80;99.90
32470;DHT22;18925;48.356;10.864;2022-08-25T00:58:33;17.80;99.90
32470;DHT22;18925;48.356;10.864;2022-08-25T00:59:05;17.90;99.90
32470;DHT22;18925;48.356;10.864;2022-08-25T00:59:36;17.80;99.90
32470;DHT22;18925;48.356;10.864;2022-08-25T01:00:15;17.80;99.90
32470;DHT22;18925;48.356;10.864;2022-08-25T01:00:48;17.80;99.90
32470;DHT22;18925;48.356;10.864;2022-08-25T01:01:20;17.80;99.90
32470;DHT22;18925;48.356;10.864;2022-08-25T01:01:51;17.80;99.90
32470;DHT22;18925;48.356;10.864;2022-08-25T01:02:23;17.80;99.90
32470;DHT22;18925;48.356;10.864;2022-08-25T01:02:54;17.80;99.90
32470;DHT22;18925;48.356;10.864;2022-08-25T01:03:28;17.80;99.90
32470;DHT22;18925;48.356;10.864;2022-08-25T01:03:59;17.80;99.90
32470;DHT22;18925;48.356;10.864;2022-08-25T01:04:30;17.80;99.90
32470;DHT22;18925;48.356;10.864;2022-08-25T01:05:02;17.70;99.90
32470;DHT22;18925;48.356;10.864;2022-08-25T01:05:33;17.70;99.90
32470;DHT22;18925;48.356;10.864;2022-08-25T01:06:05;17.70;99.90
32470;DHT22;18925;48.356;10.864;2022-08-25T01:06:38;17.80;99.90
32470;DHT22;18925;48.356;10.864;2022-08-25T01:07:10;17.70;99.90
32470;DHT22;18925;48.356;10.864;2022-08-25T01:07:42;17.80;99.90
32470;DHT22;18925;48.356;10.864;2022-08-25T01:08:14;17.70;99.90
32470;DHT22;18925;48.356;10.864;2022-08-25T01:08:45;17.80;99.90
32470;DHT22;18925;48.356;10.864;2022-08-25T01:09:17;17.80;99.90
32470;DHT22;18925;48.356;10.864;2022-08-25T01:09:51;17.80;99.90
32470;DHT22;18925;48.356;10.864;2022-08-25T01:10:23;17.80;99.90
32470;DHT22;18925;48.356;10.864;2022-08-25T01:10:57;17.80;99.90
32470;DHT22;18925;48.356;10.864;2022-08-25T01:11:28;17.70;99.90
32470;DHT22;18925;48.356;10.864;2022-08-25T01:12:00;17.70;99.90
32470;DHT22;18925;48.356;10.864;2022-08-25T01:12:31;17.70;99.90
32470;DHT22;18925;48.356;10.864;2022-08-25T01:13:08;17.70;99.90
32470;DHT22;18925;48.356;10.864;2022-08-25T01:13:43;17.70;99.90
32470;DHT22;18925;48.356;10.864;2022-08-25T01:14:17;17.70;99.90
32470;DHT22;18925;48.356;10.864;2022-08-25T01:14:48;17.70;99.90
32470;DHT22;18925;48.356;10.864;2022-08-25T01:15:20;17.70;99.90
32470;DHT22;18925;48.356;10.864;2022-08-25T01:15:54;17.70;99.90
32470;DHT22;18925;48.356;10.864;2022-08-25T01:16:25;17.70;99.90
32470;DHT22;18925;48.356;10.864;2022-08-25T01:16:56;17.70;99.90
32470;DHT22;18925;48.356;10.864;2022-08-25T01:17:45;17.70;99.90
32470;DHT22;18925;48.356;10.864;2022-08-25T01:18:16;17.70;99.90
32470;DHT22;18925;48.356;10.864;2022-08-25T01:18:55;17.70;99.90
32470;DHT22;18925;48.356;10.864;2022-08-25T01:19:28;17.70;99.90
32470;DHT22;18925;48.356;10.864;2022-08-25T01:19:58;17.70;99.90
32470;DHT22;18925;48.356;10.864;2022-08-25T01:20:31;17.60;99.90
32470;DHT22;18925;48.356;10.864;2022-08-25T01:21:02;17.60;99.90
32470;DHT22;18925;48.356;10.864;2022-08-25T01:21:39;17.60;99.90
32470;DHT22;18925;48.356;10.864;2022-08-25T01:22:10;17.60;99.90
32470;DHT22;18925;48.356;10.864;2022-08-25T01:22:41;17.60;99.90
32470;DHT22;18925;48.356;10.864;2022-08-25T01:23:12;17.50;99.90
32470;DHT22;18925;48.356;10.864;2022-08-25T01:23:44;17.50;99.90
32470;DHT22;18925;48.356;10.864;2022-08-25T01:24:41;17.40;99.90
32470;DHT22;18925;48.356;10.864;2022-08-25T01:26:01;17.50;99.90
32470;DHT22;18925;48.356;10.864;2022-08-25T01:26:34;17.50;99.90
32470;DHT22;18925;48.356;10.864;2022-08-25T01:27:05;17.50;99.90
32470;DHT22;18925;48.356;10.864;2022-08-25T01:27:36;17.50;99.90
32470;DHT22;18925;48.356;10.864;2022-08-25T01:28:08;17.40;99.90
32470;DHT22;18925;48.356;10.864;2022-08-25T01:28:40;17.50;99.90
32470;DHT22;18925;48.356;10.864;2022-08-25T01:29:31;17.40;99.90
32470;DHT22;18925;48.356;10.864;2022-08-25T01:30:03;17.40;99.90
32470;DHT22;18925;48.356;10.864;2022-08-25T01:30:34;17.40;99.90
32470;DHT22;18925;48.356;10.864;2022-08-25T01:31:05;17.40;99.90
32470;DHT22;18925;48.356;10.864;2022-08-25T01:31:36;17.40;99.90
32470;DHT22;18925;48.356;10.864;2022-08-25T01:32:09;17.40;99.90
32470;DHT22;18925;48.356;10.864;2022-08-25T01:32:41;17.40;99.90
32470;DHT22;18925;48.356;10.864;2022-08-25T01:33:12;17.40;99.90
32470;DHT22;18925;48.356;10.864;2022-08-25T01:33:42;17.40;99.90
32470;DHT22;18925;48.356;10.864;2022-08-25T01:34:14;17.40;99.90
32470;DHT22;18925;48.356;10.864;2022-08-25T01:34:45;17.40;99.90
32470;DHT22;18925;48.356;10.864;2022-08-25T01:35:16;17.40;99.90
32470;DHT22;18925;48.356;10.864;2022-08-25T01:35:47;17.30;99.90
32470;DHT22;18925;48.356;10.864;2022-08-25T01:36:20;17.30;99.90
32470;DHT22;18925;48.356;10.864;2022-08-25T01:36:51;17.30;99.90
32470;DHT22;18925;48.356;10.864;2022-08-25T01:37:22;17.30;99.90
32470;DHT22;18925;48.356;10.864;2022-08-25T01:37:53;17.30;99.90
32470;DHT22;18925;48.356;10.864;2022-08-25T01:38:24;17.30;99.90
32470;DHT22;18925;48.356;10.864;2022-08-25T01:38:55;17.30;99.90
32470;DHT22;18925;48.356;10.864;2022-08-25T01:39:27;17.30;99.90
32470;DHT22;18925;48.356;10.864;2022-08-25T01:39:58;17.30;99.90
32470;DHT22;18925;48.356;10.864;2022-08-25T01:40:29;17.30;99.90
32470;DHT22;18925;48.356;10.864;2022-08-25T01:41:00;17.30;99.90
32470;DHT22;18925;48.356;10.864;2022-08-25T01:41:44;17.30;99.90
32470;DHT22;18925;48.356;10.864;2022-08-25T01:43:37;17.30;99.90
32470;DHT22;18925;48.356;10.864;2022-08-25T01:44:08;17.30;99.90
32470;DHT22;18925;48.356;10.864;2022-08-25T01:44:41;17.30;99.90
32470;DHT22;18925;48.356;10.864;2022-08-25T01:45:13;17.30;99.90
32470;DHT22;18925;48.356;10.864;2022-08-25T01:45:46;17.30;99.90
32470;DHT22;18925;48.356;10.864;2022-08-25T01:46:16;17.30;99.90
32470;DHT22;18925;48.356;10.864;2022-08-25T01:46:47;17.30;99.90
32470;DHT22;18925;48.356;10.864;2022-08-25T01:47:18;17.30;99.90
32470;DHT22;18925;48.356;10.864;2022-08-25T01:47:49;17.30;99.90
32470;DHT22;18925;48.356;10.864;2022-08-25T01:48:19;17.30;99.90
32470;DHT22;18925;48.356;10.864;2022-08-25T01:48:50;17.20;99.90
32470;DHT22;18925;48.356;10.864;2022-08-25T01:49:21;17.20;99.90
32470;DHT22;18925;48.356;10.864;2022-08-25T01:49:51;17.30;99.90
32470;DHT22;18925;48.356;10.864;2022-08-25T01:50:22;17.30;99.90
32470;DHT22;18925;48.356;10.864;2022-08-25T01:50:53;17.30;99.90
32470;DHT22;18925;48.356;10.864;2022-08-25T01:51:24;17.30;99.90
32470;DHT22;18925;48.356;10.864;2022-08-25T01:52:11;17.30;99.90
32470;DHT22;18925;48.356;10.864;2022-08-25T01:52:50;17.30;99.90
32470;DHT22;18925;48.356;10.864;2022-08-25T01:53:26;17.30;99.90
32470;DHT22;18925;48.356;10.864;2022-08-25T01:53:57;17.30;99.90
32470;DHT22;18925;48.356;10.864;2022-08-25T01:54:27;17.30;99.90
32470;DHT22;18925;48.356;10.864;2022-08-25T01:54:58;17.30;99.90
32470;DHT22;18925;48.356;10.864;2022-08-25T01:55:29;17.30;99.90
32470;DHT22;18925;48.356;10.864;2022-08-25T01:56:08;17.30;99.90
32470;DHT22;18925;48.356;10.864;2022-08-25T01:56:40;17.30;99.90
32470;DHT22;18925;48.356;10.864;2022-08-25T01:57:11;17.30;99.90
32470;DHT22;18925;48.356;10.864;2022-08-25T01:57:42;17.30;99.90
32470;DHT22;18925;48.356;10.864;2022-08-25T01:58:12;17.30;99.90
32470;DHT22;18925;48.356;10.864;2022-08-25T01:58:46;17.30;99.90
32470;DHT22;18925;48.356;10.864;2022-08-25T01:59:19;17.20;99.90
32470;DHT22;18925;48.356;10.864;2022-08-25T01:59:50;17.20;99.90
32470;DHT22;18925;48.356;10.864;2022-08-25T02:00:21;17.20;99.90
32470;DHT22;18925;48.356;10.864;2022-08-25T02:00:54;17.20;99.90
32470;DHT22;18925;48.356;10.864;2022-08-25T02:01:26;17.20;99.90
32470;DHT22;18925;48.356;10.864;2022-08-25T02:01:57;17.20;99.90
32470;DHT22;18925;48.356;10.864;2022-08-25T02:02:28;17.20;99.90
32470;DHT22;18925;48.356;10.864;2022-08-25T02:02:59;17.20;99.90
32470;DHT22;18925;48.356;10.864;2022-08-25T02:03:30;17.20;99.90
32470;DHT22;18925;48.356;10.864;2022-08-25T02:04:00;17.20;99.90
32470;DHT22;18925;48.356;10.864;2022-08-25T02:04:32;17.20;99.90
32470;DHT22;18925;48.356;10.864;2022-08-25T02:05:03;17.20;99.90
32470;DHT22;18925;48.356;10.864;2022-08-25T02:05:33;17.20;99.90
32470;DHT22;18925;48.356;10.864;2022-08-25T02:06:05;17.20;99.90
32470;DHT22;18925;48.356;10.864;2022-08-25T02:06:36;17.20;99.90
32470;DHT22;18925;48.356;10.864;2022-08-25T02:07:07;17.20;99.90
32470;DHT22;18925;48.356;10.864;2022-08-25T02:07:38;17.20;99.90
32470;DHT22;18925;48.356;10.864;2022-08-25T02:08:09;17.20;99.90
32470;DHT22;18925;48.356;10.864;2022-08-25T02:08:41;17.20;99.90
32470;DHT22;18925;48.356;10.864;2022-08-25T02:09:14;17.20;99.90
32470;DHT22;18925;48.356;10.864;2022-08-25T02:09:45;17.20;99.90
32470;DHT22;18925;48.356;10.864;2022-08-25T02:10:15;17.20;99.90
32470;DHT22;18925;48.356;10.864;2022-08-25T02:10:46;17.20;99.90
32470;DHT22;18925;48.356;10.864;2022-08-25T02:11:17;17.20;99.90
32470;DHT22;18925;48.356;10.864;2022-08-25T02:11:48;17.20;99.90
32470;DHT22;18925;48.356;10.864;2022-08-25T02:12:18;17.20;99.90
32470;DHT22;18925;48.356;10.864;2022-08-25T02:12:49;17.10;99.90
32470;DHT22;18925;48.356;10.864;2022-08-25T02:13:21;17.10;99.90
32470;DHT22;18925;48.356;10.864;2022-08-25T02:13:52;17.10;99.90
32470;DHT22;18925;48.356;10.864;2022-08-25T02:14:23;17.10;99.90
32470;DHT22;18925;48.356;10.864;2022-08-25T02:14:54;17.10;99.90
32470;DHT22;18925;48.356;10.864;2022-08-25T02:15:24;17.10;99.90
32470;DHT22;18925;48.356;10.864;2022-08-25T02:15:56;17.10;99.90
32470;DHT22;18925;48.356;10.864;2022-08-25T02:16:31;17.10;99.90
32470;DHT22;18925;48.356;10.864;2022-08-25T02:17:03;17.10;99.90
32470;DHT22;18925;48.356;10.864;2022-08-25T02:17:35;17.10;99.90
32470;DHT22;18925;48.356;10.864;2022-08-25T02:18:06;17.10;99.90
32470;DHT22;18925;48.356;10.864;2022-08-25T02:18:36;17.10;99.90
32470;DHT22;18925;48.356;10.864;2022-08-25T02:19:09;17.10;99.90
32470;DHT22;18925;48.356;10.864;2022-08-25T02:19:41;17.20;99.90
32470;DHT22;18925;48.356;10.864;2022-08-25T02:20:11;17.20;99.90
32470;DHT22;18925;48.356;10.864;2022-08-25T02:20:42;17.20;99.90
32470;DHT22;18925;48.356;10.864;2022-08-25T02:21:13;17.10;99.90
32470;DHT22;18925;48.356;10.864;2022-08-25T02:21:44;17.10;99.90
32470;DHT22;18925;48.356;10.864;2022-08-25T02:22:15;17.10;99.90
32470;DHT22;18925;48.356;10.864;2022-08-25T02:22:46;17.10;99.90
32470;DHT22;18925;48.356;10.864;2022-08-25T02:23:17;17.10;99.90
32470;DHT22;18925;48.356;10.864;2022-08-25T02:23:48;17.10;99.90
32470;DHT22;18925;48.356;10.864;2022-08-25T02:24:19;17.10;99.90
32470;DHT22;18925;48.356;10.864;2022-08-25T02:24:49;17.10;99.90
32470;DHT22;18925;48.356;10.864;2022-08-25T02:25:20;17.00;99.90
32470;DHT22;18925;48.356;10.864;2022-08-25T02:25:50;17.10;99.90
32470;DHT22;18925;48.356;10.864;2022-08-25T02:26:22;17.10;99.90
32470;DHT22;18925;48.356;10.864;2022-08-25T02:26:53;17.00;99.90
32470;DHT22;18925;48.356;10.864;2022-08-25T02:27:23;17.00;99.90
32470;DHT22;18925;48.356;10.864;2022-08-25T02:27:54;17.10;99.90
32470;DHT22;18925;48.356;10.864;2022-08-25T02:28:25;17.10;99.90
32470;DHT22;18925;48.356;10.864;2022-08-25T02:28:56;17.00;99.90
32470;DHT22;18925;48.356;10.864;2022-08-25T02:29:26;17.00;99.90
32470;DHT22;18925;48.356;10.864;2022-08-25T02:29:57;17.00;99.90
32470;DHT22;18925;48.356;10.864;2022-08-25T02:30:28;17.00;99.90
32470;DHT22;18925;48.356;10.864;2022-08-25T02:30:58;17.00;99.90
32470;DHT22;18925;48.356;10.864;2022-08-25T02:31:29;17.00;99.90
32470;DHT22;18925;48.356;10.864;2022-08-25T02:32:00;16.90;99.90
32470;DHT22;18925;48.356;10.864;2022-08-25T02:32:32;17.00;99.90
32470;DHT22;18925;48.356;10.864;2022-08-25T02:33:03;16.90;99.90
32470;DHT22;18925;48.356;10.864;2022-08-25T02:33:34;16.90;99.90
32470;DHT22;18925;48.356;10.864;2022-08-25T02:34:05;16.90;99.90
32470;DHT22;18925;48.356;10.864;2022-08-25T02:34:36;16.90;99.90
32470;DHT22;18925;48.356;10.864;2022-08-25T02:35:07;16.80;99.90
32470;DHT22;18925;48.356;10.864;2022-08-25T02:35:38;16.90;99.90
32470;DHT22;18925;48.356;10.864;2022-08-25T02:36:09;16.80;99.90
32470;DHT22;18925;48.356;10.864;2022-08-25T02:36:40;16.80;99.90
32470;DHT22;18925;48.356;10.864;2022-08-25T02:37:11;16.80;99.90
32470;DHT22;18925;48.356;10.864;2022-08-25T02:37:42;16.80;99.90
32470;DHT22;18925;48.356;10.864;2022-08-25T02:38:13;16.80;99.90
32470;DHT22;18925;48.356;10.864;2022-08-25T02:38:43;16.80;99.90
32470;DHT22;18925;48.356;10.864;2022-08-25T02:39:16;16.80;99.90
32470;DHT22;18925;48.356;10.864;2022-08-25T02:39:46;16.80;99.90
32470;DHT22;18925;48.356;10.864;2022-08-25T02:40:18;16.80;99.90
32470;DHT22;18925;48.356;10.864;2022-08-25T02:40:50;16.80;99.90
32470;DHT22;18925;48.356;10.864;2022-08-25T02:41:23;16.80;99.90
32470;DHT22;18925;48.356;10.864;2022-08-25T02:41:54;16.70;99.90
32470;DHT22;18925;48.356;10.864;2022-08-25T02:42:25;16.70;99.90
32470;DHT22;18925;48.356;10.864;2022-08-25T02:42:56;16.80;99.90
32470;DHT22;18925;48.356;10.864;2022-08-25T02:43:27;16.80;99.90
32470;DHT22;18925;48.356;10.864;2022-08-25T02:43:59;16.70;99.90
32470;DHT22;18925;48.356;10.864;2022-08-25T02:44:30;16.70;99.90
32470;DHT22;18925;48.356;10.864;2022-08-25T02:45:01;16.70;99.90
32470;DHT22;18925;48.356;10.864;2022-08-25T02:45:32;16.70;99.90
32470;DHT22;18925;48.356;10.864;2022-08-25T02:46:03;16.70;99.90
32470;DHT22;18925;48.356;10.864;2022-08-25T02:46:34;16.70;99.90
32470;DHT22;18925;48.356;10.864;2022-08-25T02:47:05;16.70;99.90
32470;DHT22;18925;48.356;10.864;2022-08-25T02:47:36;16.70;99.90
32470;DHT22;18925;48.356;10.864;2022-08-25T02:48:07;16.70;99.90
32470;DHT22;18925;48.356;10.864;2022-08-25T02:48:38;16.70;99.90
32470;DHT22;18925;48.356;10.864;2022-08-25T02:49:09;16.70;99.90
32470;DHT22;18925;48.356;10.864;2022-08-25T02:49:40;16.70;99.90
32470;DHT22;18925;48.356;10.864;2022-08-25T02:50:10;16.70;99.90
32470;DHT22;18925;48.356;10.864;2022-08-25T02:50:46;16.70;99.90
32470;DHT22;18925;48.356;10.864;2022-08-25T02:51:18;16.70;99.90
32470;DHT22;18925;48.356;10.864;2022-08-25T02:51:48;16.70;99.90
32470;DHT22;18925;48.356;10.864;2022-08-25T02:52:19;16.70;99.90
32470;DHT22;18925;48.356;10.864;2022-08-25T02:52:50;16.70;99.90
32470;DHT22;18925;48.356;10.864;2022-08-25T02:53:21;16.70;99.90
32470;DHT22;18925;48.356;10.864;2022-08-25T02:53:52;16.70;99.90
32470;DHT22;18925;48.356;10.864;2022-08-25T02:54:23;16.70;99.90
32470;DHT22;18925;48.356;10.864;2022-08-25T02:54:54;16.70;99.90
32470;DHT22;18925;48.356;10.864;2022-08-25T02:55:25;16.70;99.90
32470;DHT22;18925;48.356;10.864;2022-08-25T02:55:56;16.70;99.90
32470;DHT22;18925;48.356;10.864;2022-08-25T02:56:28;16.80;99.90
32470;DHT22;18925;48.356;10.864;2022-08-25T02:56:59;16.80;99.90
32470;DHT22;18925;48.356;10.864;2022-08-25T02:57:30;16.80;99.90
32470;DHT22;18925;48.356;10.864;2022-08-25T02:58:01;16.70;99.90
32470;DHT22;18925;48.356;10.864;2022-08-25T02:58:32;16.80;99.90
32470;DHT22;18925;48.356;10.864;2022-08-25T02:59:02;16.80;99.90
32470;DHT22;18925;48.356;10.864;2022-08-25T02:59:33;16.80;99.90
32470;DHT22;18925;48.356;10.864;2022-08-25T03:00:06;16.80;99.90
32470;DHT22;18925;48.356;10.864;2022-08-25T03:00:37;16.80;99.90
32470;DHT22;18925;48.356;10.864;2022-08-25T03:01:09;16.80;99.90
32470;DHT22;18925;48.356;10.864;2022-08-25T03:01:41;16.70;99.90
32470;DHT22;18925;48.356;10.864;2022-08-25T03:02:11;16.70;99.90
32470;DHT22;18925;48.356;10.864;2022-08-25T03:02:42;16.70;99.90
32470;DHT22;18925;48.356;10.864;2022-08-25T03:03:13;16.70;99.90
32470;DHT22;18925;48.356;10.864;2022-08-25T03:03:45;16.70;99.90
32470;DHT22;18925;48.356;10.864;2022-08-25T03:04:16;16.70;99.90
32470;DHT22;18925;48.356;10.864;2022-08-25T03:04:47;16.80;99.90
32470;DHT22;18925;48.356;10.864;2022-08-25T03:05:17;16.80;99.90
32470;DHT22;18925;48.356;10.864;2022-08-25T03:05:48;16.80;99.90
32470;DHT22;18925;48.356;10.864;2022-08-25T03:06:20;16.70;99.90
32470;DHT22;18925;48.356;10.864;2022-08-25T03:06:52;16.70;99.90
32470;DHT22;18925;48.356;10.864;2022-08-25T03:07:23;16.80;99.90
32470;DHT22;18925;48.356;10.864;2022-08-25T03:07:53;16.70;99.90
32470;DHT22;18925;48.356;10.864;2022-08-25T03:08:24;16.80;99.90
32470;DHT22;18925;48.356;10.864;2022-08-25T03:08:55;16.80;99.90
32470;DHT22;18925;48.356;10.864;2022-08-25T03:09:26;16.80;99.90
32470;DHT22;18925;48.356;10.864;2022-08-25T03:09:57;16.80;99.90
32470;DHT22;18925;48.356;10.864;2022-08-25T03:10:27;16.70;99.90
32470;DHT22;18925;48.356;10.864;2022-08-25T03:10:58;16.70;99.90
32470;DHT22;18925;48.356;10.864;2022-08-25T03:11:29;16.70;99.90
32470;DHT22;18925;48.356;10.864;2022-08-25T03:12:00;16.80;99.90
32470;DHT22;18925;48.356;10.864;2022-08-25T03:12:31;16.70;99.90
32470;DHT22;18925;48.356;10.864;2022-08-25T03:13:02;16.80;99.90
32470;DHT22;18925;48.356;10.864;2022-08-25T03:13:33;16.80;99.90
32470;DHT22;18925;48.356;10.864;2022-08-25T03:14:06;16.80;99.90
32470;DHT22;18925;48.356;10.864;2022-08-25T03:14:38;16.80;99.90
32470;DHT22;18925;48.356;10.864;2022-08-25T03:15:10;16.80;99.90
32470;DHT22;18925;48.356;10.864;2022-08-25T03:15:41;16.80;99.90
32470;DHT22;18925;48.356;10.864;2022-08-25T03:16:13;16.80;99.90
32470;DHT22;18925;48.356;10.864;2022-08-25T03:16:44;16.80;99.90
32470;DHT22;18925;48.356;10.864;2022-08-25T03:17:14;16.70;99.90
32470;DHT22;18925;48.356;10.864;2022-08-25T03:17:46;16.70;99.90
32470;DHT22;18925;48.356;10.864;2022-08-25T03:18:19;16.70;99.90
32470;DHT22;18925;48.356;10.864;2022-08-25T03:18:49;16.70;99.90
32470;DHT22;18925;48.356;10.864;2022-08-25T03:19:20;16.70;99.90
32470;DHT22;18925;48.356;10.864;2022-08-25T03:19:50;16.70;99.90
32470;DHT22;18925;48.356;10.864;2022-08-25T03:20:22;16.70;99.90
32470;DHT22;18925;48.356;10.864;2022-08-25T03:20:53;16.70;99.90
32470;DHT22;18925;48.356;10.864;2022-08-25T03:21:25;16.70;99.90